createdAt,value
2023-01-18T00:01:53.581Z,99086.84
2023-01-18T00:04:20.396Z,99090.94
2023-01-18T00:06:48.297Z,99099.81
2023-01-18T00:09:15.226Z,99096.47
2023-01-18T00:11:44.417Z,99099.72
2023-01-18T00:14:11.314Z,99086.84
2023-01-18T00:16:42.561Z,99083.59
2023-01-18T00:19:13.428Z,99078.94
2023-01-18T00:21:40.872Z,99080.81
2023-01-18T00:24:11.425Z,99079.06
2023-01-18T00:26:38.364Z,99085.06
2023-01-18T00:29:05.376Z,99076.53
2023-01-18T00:31:32.594Z,99072.78
2023-01-18T00:33:59.622Z,99085.09
2023-01-18T00:36:27.278Z,99091.41
2023-01-18T00:38:54.360Z,99086.50
2023-01-18T00:41:22.151Z,99094.44
2023-01-18T00:43:49.441Z,99091.88
2023-01-18T00:46:17.888Z,99090.28
2023-01-18T00:48:44.983Z,99090.50
2023-01-18T00:51:13.220Z,99083.25
2023-01-18T00:53:40.296Z,99084.81
2023-01-18T00:56:09.041Z,99078.22
2023-01-18T00:58:37.706Z,99078.94
2023-01-18T01:01:05.695Z,99078.13
2023-01-18T01:03:43.257Z,99088.09
2023-01-18T01:06:24.373Z,99081.31
2023-01-18T01:08:51.235Z,99079.56
2023-01-18T01:11:18.037Z,99079.91
2023-01-18T01:13:55.266Z,99082.72
2023-01-18T01:16:31.890Z,99068.59
2023-01-18T01:19:08.515Z,99074.84
2023-01-18T01:21:44.497Z,99080.00
2023-01-18T01:24:20.724Z,99086.56
2023-01-18T01:26:47.601Z,99084.44
2023-01-18T01:29:14.525Z,99083.16
2023-01-18T01:31:41.327Z,99088.19
2023-01-18T01:34:08.371Z,99094.94
2023-01-18T01:36:35.270Z,99096.22
2023-01-18T01:39:02.379Z,99104.06
2023-01-18T01:41:31.026Z,99111.53
2023-01-18T01:43:59.221Z,99113.97
2023-01-18T01:46:33.268Z,99113.38
2023-01-18T01:49:01.421Z,99113.16
2023-01-18T01:51:28.688Z,99111.06
2023-01-18T01:53:58.819Z,99112.78
2023-01-18T01:56:26.116Z,99117.44
2023-01-18T01:58:56.990Z,99123.75
2023-01-18T02:01:23.953Z,99127.09
2023-01-18T02:03:50.986Z,99126.97
2023-01-18T02:06:30.586Z,99123.19
2023-01-18T02:08:59.956Z,99130.66
2023-01-18T02:11:26.983Z,99127.75
2023-01-18T02:13:55.316Z,99127.13
2023-01-18T02:16:23.417Z,99126.63
2023-01-18T02:18:59.818Z,99123.38
2023-01-18T02:21:35.071Z,99122.28
2023-01-18T02:24:13.356Z,99129.41
2023-01-18T02:26:50.449Z,99137.66
2023-01-18T02:29:18.436Z,99133.94
2023-01-18T02:31:52.426Z,99139.53
2023-01-18T02:34:25.567Z,99127.50
2023-01-18T02:37:02.334Z,99121.41
2023-01-18T02:39:32.084Z,99122.13
2023-01-18T02:42:14.572Z,99129.41
2023-01-18T02:44:52.409Z,99132.75
2023-01-18T02:47:19.450Z,99130.66
2023-01-18T02:49:46.334Z,99126.09
2023-01-18T02:52:23.162Z,99126.41
2023-01-18T02:54:50.040Z,99120.34
2023-01-18T02:57:18.305Z,99130.94
2023-01-18T02:59:50.616Z,99129.94
2023-01-18T03:02:19.652Z,99130.63
2023-01-18T03:04:58.446Z,99124.91
2023-01-18T03:07:27.334Z,99134.59
2023-01-18T03:09:55.251Z,99131.03
2023-01-18T03:12:28.901Z,99127.25
2023-01-18T03:14:56.105Z,99137.28
2023-01-18T03:17:28.991Z,99127.44
2023-01-18T03:20:06.649Z,99136.38
2023-01-18T03:22:45.727Z,99134.59
2023-01-18T03:25:14.129Z,99134.94
2023-01-18T03:27:52.961Z,99123.94
2023-01-18T03:30:30.201Z,99134.28
2023-01-18T03:33:06.776Z,99126.91
2023-01-18T03:35:34.248Z,99122.50
2023-01-18T03:38:01.121Z,99125.97
2023-01-18T03:40:29.570Z,99137.69
2023-01-18T03:42:59.852Z,99132.41
2023-01-18T03:45:30.206Z,99128.34
2023-01-18T03:47:57.164Z,99124.22
2023-01-18T03:50:26.432Z,99123.25
2023-01-18T03:52:56.589Z,99129.53
2023-01-18T03:55:28.263Z,99131.50
2023-01-18T03:57:55.195Z,99131.34
2023-01-18T04:00:22.331Z,99142.72
2023-01-18T04:02:49.725Z,99137.44
2023-01-18T04:05:17.309Z,99136.16
2023-01-18T04:07:44.281Z,99135.97
2023-01-18T04:10:11.764Z,99138.31
2023-01-18T04:12:38.541Z,99140.59
2023-01-18T04:15:05.653Z,99134.72
2023-01-18T04:17:32.472Z,99140.31
2023-01-18T04:19:59.291Z,99143.94
2023-01-18T04:22:26.135Z,99147.38
2023-01-18T04:24:53.297Z,99145.94
2023-01-18T04:27:20.171Z,99144.94
2023-01-18T04:29:47.024Z,99143.47
2023-01-18T04:32:13.840Z,99142.44
2023-01-18T04:34:40.677Z,99133.09
2023-01-18T04:37:07.425Z,99134.75
2023-01-18T04:39:34.311Z,99139.00
2023-01-18T04:42:01.148Z,99137.22
2023-01-18T04:44:27.901Z,99138.72
2023-01-18T04:46:54.708Z,99145.44
2023-01-18T04:49:21.559Z,99142.97
2023-01-18T04:51:48.362Z,99147.56
2023-01-18T04:54:16.647Z,99157.78
2023-01-18T04:56:43.523Z,99151.72
2023-01-18T04:59:13.769Z,99148.91
2023-01-18T05:01:40.613Z,99150.22
2023-01-18T05:04:07.622Z,99154.16
2023-01-18T05:06:34.531Z,99161.88
2023-01-18T05:09:01.360Z,99159.59
2023-01-18T05:11:28.115Z,99166.63
2023-01-18T05:13:54.860Z,99166.63
2023-01-18T05:16:22.952Z,99167.16
2023-01-18T05:18:49.853Z,99163.84
2023-01-18T05:21:16.749Z,99165.19
2023-01-18T05:23:43.839Z,99150.88
2023-01-18T05:26:15.434Z,99156.31
2023-01-18T05:28:42.695Z,99169.44
2023-01-18T05:31:09.633Z,99161.69
2023-01-18T05:33:36.645Z,99164.00
2023-01-18T05:36:03.903Z,99167.44
2023-01-18T05:38:30.773Z,99167.28
2023-01-18T05:40:57.888Z,99162.16
2023-01-18T05:43:26.249Z,99158.69
2023-01-18T05:45:53.087Z,99165.28
2023-01-18T05:48:20.137Z,99172.72
2023-01-18T05:50:48.729Z,99176.47
2023-01-18T05:53:17.135Z,99177.09
2023-01-18T05:55:44.835Z,99176.09
2023-01-18T05:58:12.171Z,99172.66
2023-01-18T06:00:39.013Z,99183.66
2023-01-18T06:03:05.783Z,99189.06
2023-01-18T06:05:32.581Z,99187.22
2023-01-18T06:07:59.837Z,99188.66
2023-01-18T06:10:26.729Z,99182.91
2023-01-18T06:12:53.561Z,99180.25
2023-01-18T06:15:20.282Z,99177.28
2023-01-18T06:17:47.439Z,99179.06
2023-01-18T06:20:14.491Z,99180.84
2023-01-18T06:22:41.288Z,99187.06
2023-01-18T06:25:10.272Z,99182.13
2023-01-18T06:27:39.342Z,99195.09
2023-01-18T06:30:07.191Z,99192.94
2023-01-18T06:32:34.261Z,99185.50
2023-01-18T06:35:01.061Z,99189.25
2023-01-18T06:37:28.017Z,99191.06
2023-01-18T06:39:54.817Z,99192.03
2023-01-18T06:42:21.690Z,99200.25
2023-01-18T06:44:48.521Z,99197.25
2023-01-18T06:47:20.089Z,99208.56
2023-01-18T06:49:48.239Z,99208.38
2023-01-18T06:52:15.861Z,99218.56
2023-01-18T06:54:42.955Z,99222.31
2023-01-18T06:57:09.766Z,99218.50
2023-01-18T06:59:36.590Z,99225.03
2023-01-18T07:02:04.904Z,99225.19
2023-01-18T07:04:35.462Z,99230.56
2023-01-18T07:07:02.650Z,99232.69
2023-01-18T07:09:29.628Z,99233.66
2023-01-18T07:11:56.456Z,99236.59
2023-01-18T07:14:23.289Z,99241.50
2023-01-18T07:16:50.157Z,99242.47
2023-01-18T07:19:17.027Z,99255.44
2023-01-18T07:21:43.954Z,99257.22
2023-01-18T07:24:11.359Z,99255.72
2023-01-18T07:26:38.394Z,99261.47
2023-01-18T07:29:05.336Z,99260.78
2023-01-18T07:31:32.319Z,99250.91
2023-01-18T07:34:00.237Z,99252.19
2023-01-18T07:36:27.154Z,99260.72
2023-01-18T07:38:54.011Z,99258.41
2023-01-18T07:41:20.917Z,99270.06
2023-01-18T07:43:47.807Z,99274.97
2023-01-18T07:46:17.231Z,99273.66
2023-01-18T07:48:45.005Z,99269.44
2023-01-18T07:51:12.281Z,99261.16
2023-01-18T07:53:39.205Z,99278.47
2023-01-18T07:56:07.569Z,99274.97
2023-01-18T07:58:36.003Z,99279.09
2023-01-18T08:01:04.200Z,99278.72
2023-01-18T08:03:31.091Z,99289.25
2023-01-18T08:05:59.776Z,99289.75
2023-01-18T08:08:29.016Z,99291.91
2023-01-18T08:10:56.698Z,99298.78
2023-01-18T08:13:24.749Z,99294.81
2023-01-18T08:15:52.089Z,99293.66
2023-01-18T08:18:19.158Z,99295.28
2023-01-18T08:20:46.917Z,99300.22
2023-01-18T08:23:13.762Z,99296.28
2023-01-18T08:25:40.802Z,99306.28
2023-01-18T08:28:07.693Z,99298.38
2023-01-18T08:30:37.011Z,99307.13
2023-01-18T08:33:04.396Z,99313.00
2023-01-18T08:35:32.861Z,99327.16
2023-01-18T08:38:00.462Z,99324.81
2023-01-18T08:40:27.641Z,99330.41
2023-01-18T08:42:59.061Z,99335.69
2023-01-18T08:45:26.846Z,99348.19
2023-01-18T08:48:02.858Z,99349.00
2023-01-18T08:50:30.484Z,99351.47
2023-01-18T08:53:00.446Z,99361.53
2023-01-18T08:55:28.343Z,99367.59
2023-01-18T08:57:55.427Z,99360.00
2023-01-18T09:00:23.897Z,99369.22
2023-01-18T09:02:52.043Z,99368.06
2023-01-18T09:05:19.173Z,99372.16
2023-01-18T09:07:46.523Z,99372.16
2023-01-18T09:10:13.939Z,99365.06
2023-01-18T09:12:40.959Z,99359.47
2023-01-18T09:15:08.801Z,99361.13
2023-01-18T09:17:36.085Z,99363.09
2023-01-18T09:20:03.487Z,99363.56
2023-01-18T09:22:30.397Z,99361.69
2023-01-18T09:24:58.081Z,99365.25
2023-01-18T09:27:25.104Z,99369.63
2023-01-18T09:29:52.673Z,99365.66
2023-01-18T09:32:20.338Z,99364.50
2023-01-18T09:34:51.142Z,99368.13
2023-01-18T09:37:19.498Z,99373.72
2023-01-18T09:39:52.182Z,99381.31
2023-01-18T09:42:22.383Z,99379.34
2023-01-18T09:44:52.322Z,99375.72
2023-01-18T09:47:22.431Z,99376.41
2023-01-18T09:49:56.860Z,99379.56
2023-01-18T09:52:31.837Z,99383.84
2023-01-18T09:55:11.178Z,99389.00
2023-01-18T09:57:46.299Z,99392.50
2023-01-18T10:00:20.084Z,99404.38
2023-01-18T10:02:48.934Z,99409.97
2023-01-18T10:05:21.476Z,99409.84
2023-01-18T10:07:55.515Z,99413.69
2023-01-18T10:10:22.761Z,99416.34
2023-01-18T10:12:54.927Z,99426.25
2023-01-18T10:15:25.758Z,99442.94
2023-01-18T10:17:56.708Z,99433.22
2023-01-18T10:20:24.246Z,99443.81
2023-01-18T10:23:01.192Z,99446.13
2023-01-18T10:25:33.337Z,99453.56
2023-01-18T10:28:07.664Z,99457.06
2023-01-18T10:30:36.066Z,99462.03
2023-01-18T10:33:07.666Z,99467.50
2023-01-18T10:35:35.767Z,99465.38
2023-01-18T10:38:06.492Z,99473.28
2023-01-18T10:40:34.304Z,99469.50
2023-01-18T10:43:04.883Z,99470.19
2023-01-18T10:45:33.712Z,99466.38
2023-01-18T10:48:09.881Z,99470.19
2023-01-18T10:50:38.330Z,99473.34
2023-01-18T10:53:14.642Z,99476.78
2023-01-18T10:55:42.098Z,99469.41
2023-01-18T10:58:14.671Z,99478.00
2023-01-18T11:00:42.031Z,99482.97
2023-01-18T11:03:14.167Z,99488.56
2023-01-18T11:05:44.757Z,99499.75
2023-01-18T11:08:22.806Z,99484.13
2023-01-18T11:10:58.396Z,99485.25
2023-01-18T11:13:25.761Z,99484.13
2023-01-18T11:16:02.989Z,99488.22
2023-01-18T11:18:29.994Z,99484.41
2023-01-18T11:20:57.661Z,99484.91
2023-01-18T11:23:37.946Z,99495.44
2023-01-18T11:26:07.713Z,99492.81
2023-01-18T11:28:36.544Z,99499.69
2023-01-18T11:31:13.514Z,99495.06
2023-01-18T11:33:49.416Z,99500.81
2023-01-18T11:36:17.352Z,99501.31
2023-01-18T11:38:44.475Z,99500.66
2023-01-18T11:41:15.361Z,99492.75
2023-01-18T11:43:46.061Z,99499.31
2023-01-18T11:46:22.129Z,99511.81
2023-01-18T11:48:52.834Z,99507.53
2023-01-18T11:51:29.051Z,99510.47
2023-01-18T11:54:05.412Z,99509.31
2023-01-18T11:56:41.181Z,99514.75
2023-01-18T11:59:14.413Z,99511.94
2023-01-18T12:01:51.227Z,99517.34
2023-01-18T12:04:26.958Z,99512.53
2023-01-18T12:07:13.837Z,99515.84
2023-01-18T12:09:50.886Z,99500.31
2023-01-18T12:12:27.138Z,99508.06
2023-01-18T12:15:03.247Z,99510.53
2023-01-18T12:17:37.556Z,99509.88
2023-01-18T12:20:08.659Z,99511.16
2023-01-18T12:22:49.252Z,99505.22
2023-01-18T12:25:22.051Z,99509.31
2023-01-18T12:27:58.442Z,99512.59
2023-01-18T12:30:32.071Z,99524.78
2023-01-18T12:33:08.178Z,99518.03
2023-01-18T12:35:42.633Z,99526.91
2023-01-18T12:38:13.630Z,99515.03
2023-01-18T12:40:44.016Z,99528.34
2023-01-18T12:43:12.018Z,99531.16
2023-01-18T12:45:40.571Z,99531.66
2023-01-18T12:48:09.408Z,99538.88
2023-01-18T12:50:38.205Z,99539.69
2023-01-18T12:53:10.032Z,99528.16
2023-01-18T12:55:40.158Z,99531.09
2023-01-18T12:58:10.392Z,99545.94
2023-01-18T13:00:39.095Z,99545.94
2023-01-18T13:03:11.595Z,99543.97
2023-01-18T13:05:52.935Z,99549.25
2023-01-18T13:08:27.794Z,99536.00
2023-01-18T13:11:01.944Z,99544.78
2023-01-18T13:13:29.722Z,99553.66
2023-01-18T13:16:06.103Z,99547.22
2023-01-18T13:18:37.216Z,99544.78
2023-01-18T13:21:06.054Z,99553.53
2023-01-18T13:23:43.194Z,99550.72
2023-01-18T13:26:13.554Z,99558.81
2023-01-18T13:28:40.615Z,99557.50
2023-01-18T13:31:08.173Z,99561.13
2023-01-18T13:33:37.307Z,99562.13
2023-01-18T13:36:09.408Z,99571.88
2023-01-18T13:38:41.823Z,99570.22
2023-01-18T13:41:12.770Z,99583.09
2023-01-18T13:43:42.359Z,99584.25
2023-01-18T13:46:10.102Z,99583.75
2023-01-18T13:48:42.453Z,99588.75
2023-01-18T13:51:09.704Z,99585.13
2023-01-18T13:53:48.876Z,99585.78
2023-01-18T13:56:26.051Z,99606.75
2023-01-18T13:58:55.486Z,99611.03
2023-01-18T14:01:24.671Z,99599.69
2023-01-18T14:03:52.726Z,99598.41
2023-01-18T14:06:21.100Z,99616.38
2023-01-18T14:08:50.857Z,99617.69
2023-01-18T14:11:25.033Z,99623.63
2023-01-18T14:13:53.622Z,99624.00
2023-01-18T14:16:25.638Z,99629.09
2023-01-18T14:18:58.895Z,99627.44
2023-01-18T14:21:27.345Z,99626.97
2023-01-18T14:24:06.532Z,99635.06
2023-01-18T14:26:36.063Z,99626.00
2023-01-18T14:29:06.685Z,99626.66
2023-01-18T14:31:36.491Z,99632.25
2023-01-18T14:34:13.791Z,99629.63
2023-01-18T14:36:40.846Z,99644.09
2023-01-18T14:39:13.105Z,99649.25
2023-01-18T14:41:43.779Z,99658.63
2023-01-18T14:44:15.693Z,99655.47
2023-01-18T14:46:43.396Z,99658.78
2023-01-18T14:49:15.667Z,99653.31
2023-01-18T14:51:48.211Z,99651.84
2023-01-18T14:54:17.559Z,99648.69
2023-01-18T14:56:44.769Z,99652.81
2023-01-18T14:59:21.404Z,99664.50
2023-01-18T15:01:53.681Z,99670.59
2023-01-18T15:04:25.265Z,99672.72
2023-01-18T15:06:55.903Z,99673.22
2023-01-18T15:09:24.274Z,99668.59
2023-01-18T15:11:53.868Z,99663.81
2023-01-18T15:14:22.758Z,99673.50
2023-01-18T15:16:51.845Z,99688.03
2023-01-18T15:19:21.976Z,99683.72
2023-01-18T15:21:49.449Z,99691.81
2023-01-18T15:24:21.337Z,99695.91
2023-01-18T15:26:57.403Z,99704.00
2023-01-18T15:29:26.441Z,99713.69
2023-01-18T15:31:55.979Z,99716.19
2023-01-18T15:34:32.177Z,99718.97
2023-01-18T15:37:00.971Z,99709.88
2023-01-18T15:39:28.533Z,99709.09
2023-01-18T15:41:57.617Z,99725.91
2023-01-18T15:44:34.124Z,99728.72
2023-01-18T15:47:01.852Z,99741.09
2023-01-18T15:49:29.347Z,99743.91
2023-01-18T15:51:57.820Z,99746.69
2023-01-18T15:54:26.781Z,99739.94
2023-01-18T15:56:56.585Z,99744.53
2023-01-18T15:59:25.534Z,99737.78
2023-01-18T16:02:02.285Z,99747.84
2023-01-18T16:04:30.164Z,99747.34
2023-01-18T16:06:57.442Z,99751.34
2023-01-18T16:09:24.726Z,99747.19
2023-01-18T16:11:54.787Z,99755.97
2023-01-18T16:14:26.180Z,99754.16
2023-01-18T16:16:54.333Z,99751.19
2023-01-18T16:19:22.774Z,99754.34
2023-01-18T16:21:52.049Z,99760.13
2023-01-18T16:24:23.893Z,99769.19
2023-01-18T16:26:51.032Z,99768.19
2023-01-18T16:29:18.443Z,99771.34
2023-01-18T16:31:46.107Z,99770.69
2023-01-18T16:34:22.283Z,99771.84
2023-01-18T16:36:49.901Z,99781.75
2023-01-18T16:39:17.081Z,99779.28
2023-01-18T16:41:49.593Z,99790.34
2023-01-18T16:44:17.011Z,99792.16
2023-01-18T16:46:45.582Z,99799.72
2023-01-18T16:49:13.442Z,99792.31
2023-01-18T16:51:41.339Z,99798.56
2023-01-18T16:54:09.163Z,99812.56
2023-01-18T16:56:36.378Z,99811.25
2023-01-18T16:59:11.332Z,99817.53
2023-01-18T17:01:38.861Z,99818.38
2023-01-18T17:04:07.037Z,99819.00
2023-01-18T17:06:34.529Z,99819.66
2023-01-18T17:09:01.838Z,99833.16
2023-01-18T17:11:29.088Z,99838.25
2023-01-18T17:13:56.373Z,99838.41
2023-01-18T17:16:23.712Z,99843.50
2023-01-18T17:18:51.174Z,99848.28
2023-01-18T17:21:18.658Z,99849.59
2023-01-18T17:23:45.800Z,99851.56
2023-01-18T17:26:15.758Z,99861.41
2023-01-18T17:28:43.044Z,99858.97
2023-01-18T17:31:10.697Z,99861.09
2023-01-18T17:33:40.855Z,99863.38
2023-01-18T17:36:09.434Z,99869.47
2023-01-18T17:38:36.460Z,99864.19
2023-01-18T17:41:03.633Z,99870.59
2023-01-18T17:43:34.622Z,99877.97
2023-01-18T17:46:04.177Z,99878.59
2023-01-18T17:48:31.530Z,99892.44
2023-01-18T17:50:59.222Z,99885.16
2023-01-18T17:53:26.561Z,99886.66
2023-01-18T17:55:54.328Z,99898.50
2023-01-18T17:58:21.649Z,99898.28
2023-01-18T18:00:49.236Z,99911.81
2023-01-18T18:03:16.747Z,99913.22
2023-01-18T18:05:44.358Z,99919.63
2023-01-18T18:08:11.538Z,99919.44
2023-01-18T18:10:38.707Z,99934.38
2023-01-18T18:13:05.817Z,99937.16
2023-01-18T18:15:33.163Z,99940.91
2023-01-18T18:18:00.520Z,99933.47
2023-01-18T18:20:27.920Z,99940.22
2023-01-18T18:22:55.522Z,99956.16
2023-01-18T18:25:22.586Z,99953.19
2023-01-18T18:27:49.733Z,99965.50
2023-01-18T18:30:18.181Z,99971.09
2023-01-18T18:32:45.494Z,99972.88
2023-01-18T18:35:24.343Z,99969.72
2023-01-18T18:37:52.306Z,99973.34
2023-01-18T18:40:19.848Z,99974.66
2023-01-18T18:43:00.763Z,99980.38
2023-01-18T18:45:29.097Z,99995.72
2023-01-18T18:47:56.124Z,100007.19
2023-01-18T18:50:23.242Z,100001.59
2023-01-18T18:52:50.275Z,100010.94
2023-01-18T18:55:18.337Z,100009.94
2023-01-18T18:57:46.666Z,100012.00
2023-01-18T19:00:14.727Z,100015.63
2023-01-18T19:02:42.123Z,100021.03
2023-01-18T19:05:11.010Z,100023.00
2023-01-18T19:07:38.071Z,100018.16
2023-01-18T19:10:06.182Z,100019.09
2023-01-18T19:12:33.413Z,100023.84
2023-01-18T19:15:00.532Z,100029.56
2023-01-18T19:17:30.833Z,100033.19
2023-01-18T19:19:59.196Z,100042.19
2023-01-18T19:22:26.617Z,100041.13
2023-01-18T19:24:53.425Z,100054.31
2023-01-18T19:27:21.688Z,100049.66
2023-01-18T19:29:49.040Z,100054.50
2023-01-18T19:32:16.379Z,100063.72
2023-01-18T19:34:43.186Z,100066.00
2023-01-18T19:37:10.069Z,100061.63
2023-01-18T19:39:37.163Z,100066.19
2023-01-18T19:42:04.981Z,100064.53
2023-01-18T19:44:31.961Z,100071.78
2023-01-18T19:46:58.996Z,100088.00
2023-01-18T19:49:26.280Z,100092.84
2023-01-18T19:51:54.860Z,100095.75
2023-01-18T19:54:22.088Z,100092.75
2023-01-18T19:56:49.302Z,100095.84
2023-01-18T19:59:16.216Z,100097.28
2023-01-18T20:01:43.250Z,100105.22
2023-01-18T20:04:10.270Z,100112.25
2023-01-18T20:06:38.864Z,100116.47
2023-01-18T20:09:17.740Z,100119.28
2023-01-18T20:11:45.680Z,100116.59
2023-01-18T20:14:12.738Z,100114.94
2023-01-18T20:16:40.069Z,100113.91
2023-01-18T20:19:07.159Z,100113.91
2023-01-18T20:21:34.221Z,100120.41
2023-01-18T20:24:01.343Z,100118.19
2023-01-18T20:26:36.692Z,100117.38
2023-01-18T20:29:07.468Z,100113.53
2023-01-18T20:31:36.697Z,100129.75
2023-01-18T20:34:04.307Z,100126.16
2023-01-18T20:36:31.371Z,100130.69
2023-01-18T20:38:58.222Z,100134.59
2023-01-18T20:41:25.258Z,100137.38
2023-01-18T20:43:52.918Z,100136.03
2023-01-18T20:46:19.913Z,100133.84
2023-01-18T20:48:46.759Z,100137.75
2023-01-18T20:51:13.972Z,100141.16
2023-01-18T20:53:40.831Z,100139.50
2023-01-18T20:56:17.055Z,100143.97
2023-01-18T20:58:54.881Z,100134.97
2023-01-18T21:01:21.925Z,100138.59
2023-01-18T21:03:55.824Z,100137.16
2023-01-18T21:06:22.873Z,100144.94
2023-01-18T21:08:52.027Z,100142.13
2023-01-18T21:11:18.938Z,100148.69
2023-01-18T21:13:45.678Z,100153.34
2023-01-18T21:16:12.890Z,100155.22
2023-01-18T21:18:39.921Z,100158.75
2023-01-18T21:21:06.821Z,100152.56
2023-01-18T21:23:39.704Z,100159.19
2023-01-18T21:26:07.993Z,100163.03
2023-01-18T21:28:34.973Z,100169.69
2023-01-18T21:31:02.045Z,100177.94
2023-01-18T21:33:29.446Z,100173.72
2023-01-18T21:35:56.559Z,100175.28
2023-01-18T21:38:23.593Z,100181.91
2023-01-18T21:40:50.544Z,100176.25
2023-01-18T21:43:28.911Z,100185.69
2023-01-18T21:45:55.708Z,100186.41
2023-01-18T21:48:23.389Z,100198.66
2023-01-18T21:50:59.946Z,100193.78
2023-01-18T21:53:35.868Z,100197.50
2023-01-18T21:56:02.648Z,100194.41
2023-01-18T21:58:39.272Z,100199.19
2023-01-18T22:01:15.092Z,100199.09
2023-01-18T22:03:42.152Z,100206.25
2023-01-18T22:06:09.351Z,100206.63
2023-01-18T22:08:36.298Z,100206.25
2023-01-18T22:11:03.170Z,100204.97
2023-01-18T22:13:29.952Z,100211.31
2023-01-18T22:15:56.942Z,100205.31
2023-01-18T22:18:23.699Z,100211.59
2023-01-18T22:21:00.152Z,100217.63
2023-01-18T22:23:27.350Z,100220.31
2023-01-18T22:25:54.772Z,100225.84
2023-01-18T22:28:22.013Z,100225.41
2023-01-18T22:30:49.316Z,100228.38
2023-01-18T22:33:17.639Z,100228.28
2023-01-18T22:35:44.459Z,100232.94
2023-01-18T22:38:12.597Z,100242.06
2023-01-18T22:40:39.423Z,100246.72
2023-01-18T22:43:06.159Z,100253.03
2023-01-18T22:45:32.955Z,100250.13
2023-01-18T22:48:00.078Z,100255.91
2023-01-18T22:50:27.189Z,100259.44
2023-01-18T22:52:54.344Z,100260.44
2023-01-18T22:55:21.522Z,100267.91
2023-01-18T22:57:48.256Z,100258.56
2023-01-18T23:00:15.516Z,100258.75
2023-01-18T23:02:42.330Z,100260.91
2023-01-18T23:05:09.388Z,100273.94
2023-01-18T23:07:36.143Z,100274.97
2023-01-18T23:10:03.002Z,100279.63
2023-01-18T23:12:29.728Z,100279.84
2023-01-18T23:15:06.023Z,100280.03
2023-01-18T23:17:42.014Z,100274.16
2023-01-18T23:20:11.350Z,100288.00
2023-01-18T23:22:38.582Z,100293.00
2023-01-18T23:25:05.547Z,100288.41
2023-01-18T23:27:32.365Z,100300.94
2023-01-18T23:29:59.438Z,100297.53
2023-01-18T23:32:27.428Z,100301.34
2023-01-18T23:34:55.521Z,100302.38
2023-01-18T23:37:22.594Z,100302.84
2023-01-18T23:39:59.038Z,100305.88
2023-01-18T23:42:35.305Z,100311.66
2023-01-18T23:45:11.823Z,100309.34
2023-01-18T23:47:48.303Z,100306.41
2023-01-18T23:50:24.943Z,100310.56
2023-01-18T23:53:01.156Z,100312.25
2023-01-18T23:55:27.959Z,100311.06
2023-01-18T23:57:54.639Z,100310.44
